createdAt,value
2022-08-01T00:00:58.018Z,1.10
2022-08-01T00:03:28.212Z,1.13
2022-08-01T00:05:59.917Z,1.00
2022-08-01T00:08:29.068Z,1.20
2022-08-01T00:11:02.860Z,1.07
2022-08-01T00:13:34.960Z,1.20
2022-08-01T00:16:05.741Z,0.87
2022-08-01T00:18:40.210Z,1.10
2022-08-01T00:21:17.069Z,0.90
2022-08-01T00:23:48.440Z,1.10
2022-08-01T00:26:23.662Z,0.93
2022-08-01T00:28:53.924Z,1.00
2022-08-01T00:31:25.819Z,0.93
2022-08-01T00:33:58.395Z,1.00
2022-08-01T00:36:26.960Z,1.00
2022-08-01T00:38:56.434Z,1.30
2022-08-01T00:41:26.266Z,0.87
2022-08-01T00:43:58.162Z,0.90
2022-08-01T00:46:29.555Z,0.70
2022-08-01T00:49:04.326Z,1.10
2022-08-01T00:51:42.180Z,0.90
2022-08-01T00:54:16.803Z,1.20
2022-08-01T00:56:51.617Z,1.07
2022-08-01T00:59:25.951Z,1.30
2022-08-01T01:01:58.487Z,0.93
2022-08-01T01:04:31.828Z,1.10
2022-08-01T01:07:34.060Z,1.03
2022-08-01T01:10:27.835Z,1.10
2022-08-01T01:13:09.357Z,1.00
2022-08-01T01:15:57.455Z,1.00
2022-08-01T01:18:48.358Z,1.10
2022-08-01T01:21:25.029Z,1.10
2022-08-01T01:24:13.517Z,1.10
2022-08-01T01:27:01.822Z,1.13
2022-08-01T01:29:58.897Z,0.93
2022-08-01T01:32:39.282Z,1.10
2022-08-01T01:35:14.839Z,1.00
2022-08-01T01:37:50.060Z,1.10
2022-08-01T01:40:21.249Z,1.10
2022-08-01T01:42:52.199Z,1.10
2022-08-01T01:45:31.731Z,1.10
2022-08-01T01:48:03.437Z,1.27
2022-08-01T01:50:36.843Z,1.10
2022-08-01T01:53:05.738Z,1.10
2022-08-01T01:55:49.812Z,1.00
2022-08-01T01:58:21.883Z,1.03
2022-08-01T02:00:52.624Z,1.17
2022-08-01T02:03:25.279Z,1.13
2022-08-01T02:06:08.249Z,1.20
2022-08-01T02:08:39.334Z,1.10
2022-08-01T02:11:24.408Z,1.30
2022-08-01T02:13:58.296Z,1.10
2022-08-01T02:16:32.763Z,1.10
2022-08-01T02:19:07.726Z,1.27
2022-08-01T02:21:42.167Z,1.20
2022-08-01T02:24:30.544Z,1.10
2022-08-01T02:29:59.302Z,1.30
2022-08-01T02:32:32.700Z,1.00
2022-08-01T02:35:14.740Z,1.00
2022-08-01T02:37:46.907Z,1.27
2022-08-01T02:40:17.869Z,1.00
2022-08-01T02:42:50.733Z,1.00
2022-08-01T02:45:20.511Z,1.20
2022-08-01T02:47:51.678Z,0.93
2022-08-01T02:50:27.261Z,1.20
2022-08-01T02:52:59.819Z,1.20
2022-08-01T02:55:31.576Z,1.20
2022-08-01T02:58:07.995Z,1.20
2022-08-01T03:00:48.806Z,1.07
2022-08-01T03:03:19.105Z,1.10
2022-08-01T03:05:47.955Z,1.13
2022-08-01T03:08:22.468Z,1.00
2022-08-01T03:10:54.300Z,1.30
2022-08-01T03:13:30.192Z,1.20
2022-08-01T03:16:02.929Z,1.20
2022-08-01T03:18:40.576Z,1.17
2022-08-01T03:21:12.409Z,1.30
2022-08-01T03:23:43.934Z,1.13
2022-08-01T03:26:15.562Z,1.30
2022-08-01T03:28:52.762Z,0.93
2022-08-01T03:31:30.687Z,1.13
2022-08-01T03:34:05.763Z,1.30
2022-08-01T03:36:35.010Z,1.10
2022-08-01T03:39:06.158Z,1.40
2022-08-01T03:41:56.797Z,1.10
2022-08-01T03:44:32.601Z,1.00
2022-08-01T03:47:09.838Z,1.33
2022-08-01T03:49:45.307Z,1.33
2022-08-01T03:52:17.632Z,1.30
2022-08-01T03:54:53.306Z,1.30
2022-08-01T03:57:35.854Z,1.13
2022-08-01T04:00:16.648Z,1.30
2022-08-01T04:05:54.829Z,1.10
2022-08-01T04:08:43.406Z,1.20
2022-08-01T04:11:18.039Z,1.30
2022-08-01T04:13:50.513Z,1.37
2022-08-01T04:16:23.694Z,1.33
2022-08-01T04:18:52.656Z,1.20
2022-08-01T04:21:28.184Z,1.10
2022-08-01T04:26:45.063Z,1.30
2022-08-01T04:29:14.054Z,1.20
2022-08-01T04:31:55.877Z,1.40
2022-08-01T04:34:41.409Z,1.37
2022-08-01T04:37:14.979Z,1.20
2022-08-01T04:39:50.586Z,1.40
2022-08-01T04:42:26.002Z,1.10
2022-08-01T04:45:00.971Z,1.40
2022-08-01T04:47:32.083Z,1.30
2022-08-01T04:50:02.056Z,1.20
2022-08-01T04:52:40.438Z,1.30
2022-08-01T04:55:17.414Z,1.20
2022-08-01T04:57:58.939Z,1.20
2022-08-01T05:00:39.778Z,1.37
2022-08-01T05:03:12.466Z,1.23
2022-08-01T05:05:43.905Z,1.43
2022-08-01T05:08:12.989Z,1.70
2022-08-01T05:10:45.849Z,1.53
2022-08-01T05:16:06.795Z,1.50
2022-08-01T05:18:41.331Z,1.50
2022-08-01T05:21:16.498Z,1.40
2022-08-01T05:23:47.665Z,1.50
2022-08-01T05:26:19.429Z,1.60
2022-08-01T05:28:48.009Z,1.37
2022-08-01T05:31:23.182Z,1.50
2022-08-01T05:33:56.035Z,1.40
2022-08-01T05:36:27.375Z,1.30
2022-08-01T05:39:00.256Z,1.43
2022-08-01T05:41:37.433Z,1.40
2022-08-01T05:44:10.305Z,1.23
2022-08-01T05:46:40.618Z,1.57
2022-08-01T05:49:11.245Z,1.20
2022-08-01T05:51:43.768Z,1.50
2022-08-01T05:54:14.617Z,1.40
2022-08-01T05:56:45.614Z,1.70
2022-08-01T05:59:15.811Z,1.50
2022-08-01T06:01:57.942Z,1.50
2022-08-01T06:04:27.916Z,1.73
2022-08-01T06:07:01.279Z,1.50
2022-08-01T06:09:41.542Z,1.47
2022-08-01T06:12:12.608Z,1.43
2022-08-01T06:14:46.960Z,1.43
2022-08-01T06:17:18.568Z,1.27
2022-08-01T06:19:57.234Z,1.40
2022-08-01T06:22:26.041Z,1.37
2022-08-01T06:24:54.450Z,1.67
2022-08-01T06:27:23.844Z,1.40
2022-08-01T06:29:57.437Z,1.50
2022-08-01T06:32:27.993Z,1.50
2022-08-01T06:35:07.751Z,1.37
2022-08-01T06:37:39.481Z,1.70
2022-08-01T06:40:14.720Z,1.43
2022-08-01T06:42:47.023Z,1.50
2022-08-01T06:45:19.158Z,1.50
2022-08-01T06:47:50.617Z,1.60
2022-08-01T06:50:20.525Z,1.30
2022-08-01T06:52:57.152Z,1.47
2022-08-01T06:55:29.191Z,1.57
2022-08-01T06:57:59.275Z,1.70
2022-08-01T07:00:32.447Z,1.47
2022-08-01T07:03:04.051Z,1.43
2022-08-01T07:05:33.857Z,1.33
2022-08-01T07:08:14.930Z,1.67
2022-08-01T07:10:44.926Z,1.60
2022-08-01T07:13:16.895Z,1.50
2022-08-01T07:15:46.704Z,1.40
2022-08-01T07:18:18.060Z,1.40
2022-08-01T07:20:51.800Z,1.50
2022-08-01T07:23:22.831Z,1.60
2022-08-01T07:26:04.709Z,1.37
2022-08-01T07:28:35.874Z,1.17
2022-08-01T07:31:16.503Z,1.20
2022-08-01T07:33:48.529Z,1.47
2022-08-01T07:36:17.857Z,1.27
2022-08-01T07:38:53.530Z,1.20
2022-08-01T07:41:53.422Z,1.20
2022-08-01T07:44:19.129Z,1.40
2022-08-01T07:46:55.525Z,1.33
2022-08-01T07:49:30.207Z,1.40
2022-08-01T07:52:04.149Z,1.30
2022-08-01T07:54:38.366Z,1.70
2022-08-01T07:57:08.460Z,1.20
2022-08-01T07:59:42.762Z,1.23
2022-08-01T08:02:12.031Z,1.30
2022-08-01T08:04:44.644Z,1.50
2022-08-01T08:07:19.270Z,1.10
2022-08-01T08:09:51.546Z,1.10
2022-08-01T08:12:28.717Z,1.37
2022-08-01T08:15:02.388Z,1.20
2022-08-01T08:17:39.911Z,1.40
2022-08-01T08:20:10.019Z,1.10
2022-08-01T08:22:38.696Z,1.10
2022-08-01T08:25:10.110Z,1.23
2022-08-01T08:27:42.869Z,1.20
2022-08-01T08:30:14.678Z,1.03
2022-08-01T08:32:58.473Z,1.10
2022-08-01T08:35:40.555Z,1.10
2022-08-01T08:38:19.726Z,1.00
2022-08-01T08:43:46.170Z,1.10
2022-08-01T08:46:17.684Z,1.30
2022-08-01T08:48:45.371Z,1.10
2022-08-01T08:51:16.334Z,1.30
2022-08-01T08:53:56.995Z,1.13
2022-08-01T08:56:45.392Z,1.03
2022-08-01T08:59:30.332Z,1.10
2022-08-01T09:02:01.479Z,1.20
2022-08-01T09:04:32.137Z,1.07
2022-08-01T09:07:04.177Z,0.90
2022-08-01T09:09:34.530Z,0.80
2022-08-01T09:12:14.779Z,0.93
2022-08-01T09:14:49.168Z,1.00
2022-08-01T09:17:20.397Z,0.90
2022-08-01T09:20:07.435Z,0.90
2022-08-01T09:25:22.042Z,0.90
2022-08-01T09:28:09.375Z,1.10
2022-08-01T09:30:51.585Z,1.07
2022-08-01T09:33:23.386Z,0.90
2022-08-01T09:35:59.768Z,1.00
2022-08-01T09:38:41.523Z,1.13
2022-08-01T09:41:17.962Z,1.00
2022-08-01T09:44:15.758Z,0.87
2022-08-01T09:46:58.691Z,0.80
2022-08-01T09:49:50.505Z,0.80
2022-08-01T09:52:30.541Z,0.90
2022-08-01T09:55:00.682Z,1.07
2022-08-01T09:57:36.897Z,1.10
2022-08-01T10:00:19.423Z,0.90
2022-08-01T10:03:10.392Z,0.77
2022-08-01T10:05:50.167Z,1.00
2022-08-01T10:08:31.852Z,0.90
2022-08-01T10:11:18.087Z,0.90
2022-08-01T10:13:48.418Z,1.00
2022-08-01T10:16:20.030Z,1.20
2022-08-01T10:18:48.570Z,0.80
2022-08-01T10:21:56.753Z,0.83
2022-08-01T10:24:18.905Z,0.80
2022-08-01T10:26:58.489Z,0.90
2022-08-01T10:29:46.312Z,0.90
2022-08-01T10:32:28.751Z,1.10
2022-08-01T10:35:06.559Z,1.10
2022-08-01T10:37:52.735Z,1.30
2022-08-01T10:40:31.490Z,1.10
2022-08-01T10:43:05.944Z,1.20
2022-08-01T10:48:46.374Z,1.30
2022-08-01T10:51:17.768Z,1.30
2022-08-01T10:53:56.951Z,1.13
2022-08-01T10:56:41.410Z,1.00
2022-08-01T10:59:15.060Z,1.60
2022-08-01T11:01:45.571Z,1.30
2022-08-01T11:04:19.467Z,1.20
2022-08-01T11:07:11.182Z,1.03
2022-08-01T11:09:52.131Z,1.27
2022-08-01T11:12:24.488Z,1.70
2022-08-01T11:15:29.329Z,1.00
2022-08-01T11:18:02.136Z,1.20
2022-08-01T11:20:41.786Z,1.30
2022-08-01T11:23:16.646Z,1.07
2022-08-01T11:26:05.401Z,1.20
2022-08-01T11:28:50.361Z,1.17
2022-08-01T11:31:36.991Z,1.10
2022-08-01T11:34:07.232Z,1.27
2022-08-01T11:36:59.453Z,1.20
2022-08-01T11:39:38.240Z,1.00
2022-08-01T11:42:28.148Z,1.40
2022-08-01T11:45:00.587Z,1.00
2022-08-01T11:47:47.887Z,1.10
2022-08-01T11:50:39.057Z,1.20
2022-08-01T11:53:12.667Z,1.20
2022-08-01T11:55:54.783Z,0.87
2022-08-01T11:58:29.233Z,1.10
2022-08-01T12:01:03.869Z,1.03
2022-08-01T12:03:39.650Z,1.20
2022-08-01T12:06:16.499Z,1.07
2022-08-01T12:08:48.565Z,1.10
2022-08-01T12:11:19.252Z,0.83
2022-08-01T12:13:51.287Z,0.80
2022-08-01T12:16:23.893Z,0.93
2022-08-01T12:19:01.346Z,1.00
2022-08-01T12:21:32.304Z,0.90
2022-08-01T12:24:06.339Z,0.93
2022-08-01T12:26:46.806Z,0.87
2022-08-01T12:29:33.986Z,0.90
2022-08-01T12:32:04.855Z,1.00
2022-08-01T12:34:37.791Z,0.83
2022-08-01T12:37:08.912Z,1.10
2022-08-01T12:39:42.076Z,1.00
2022-08-01T12:42:14.650Z,1.00
2022-08-01T12:44:49.187Z,0.80
2022-08-01T12:47:21.537Z,1.27
2022-08-01T12:49:53.826Z,0.90
2022-08-01T12:52:26.843Z,0.90
2022-08-01T12:55:09.805Z,0.97
2022-08-01T12:57:43.969Z,1.10
2022-08-01T13:00:21.364Z,1.20
2022-08-01T13:03:14.820Z,1.20
2022-08-01T13:05:46.820Z,1.00
2022-08-01T13:08:25.430Z,0.80
2022-08-01T13:11:04.165Z,1.00
2022-08-01T13:13:50.866Z,1.13
2022-08-01T13:16:30.244Z,1.00
2022-08-01T13:19:07.709Z,0.80
2022-08-01T13:21:54.567Z,0.90
2022-08-01T13:24:32.056Z,0.90
2022-08-01T13:27:17.826Z,1.00
2022-08-01T13:29:53.928Z,1.00
2022-08-01T13:32:28.790Z,1.30
2022-08-01T13:35:10.513Z,0.90
2022-08-01T13:37:41.145Z,1.10
2022-08-01T13:40:13.440Z,1.10
2022-08-01T13:42:49.570Z,1.17
2022-08-01T13:45:22.318Z,0.90
2022-08-01T13:48:12.455Z,0.97
2022-08-01T13:50:47.949Z,1.00
2022-08-01T13:53:30.258Z,1.10
2022-08-01T13:55:59.281Z,0.93
2022-08-01T13:58:32.170Z,0.90
2022-08-01T14:01:02.041Z,0.90
2022-08-01T14:03:37.743Z,1.00
2022-08-01T14:06:08.504Z,0.90
2022-08-01T14:08:47.971Z,1.10
2022-08-01T14:11:21.877Z,1.00
2022-08-01T14:13:52.939Z,1.23
2022-08-01T14:16:25.696Z,0.93
2022-08-01T14:18:53.407Z,1.20
2022-08-01T14:21:26.085Z,1.03
2022-08-01T14:24:01.915Z,1.03
2022-08-01T14:26:36.380Z,0.87
2022-08-01T14:29:08.300Z,1.07
2022-08-01T14:31:37.835Z,1.00
2022-08-01T14:34:07.386Z,1.20
2022-08-01T14:36:39.161Z,1.30
2022-08-01T14:39:15.059Z,1.00
2022-08-01T14:41:46.149Z,1.10
2022-08-01T14:44:20.619Z,1.00
2022-08-01T14:46:57.584Z,1.20
2022-08-01T14:49:32.830Z,1.20
2022-08-01T14:52:04.476Z,1.33
2022-08-01T14:54:34.762Z,1.27
2022-08-01T14:57:03.506Z,1.10
2022-08-01T14:59:38.921Z,1.20
2022-08-01T15:02:12.859Z,1.30
2022-08-01T15:04:43.912Z,1.07
2022-08-01T15:07:12.700Z,1.17
2022-08-01T15:09:45.920Z,1.33
2022-08-01T15:12:21.309Z,1.20
2022-08-01T15:14:49.644Z,1.00
2022-08-01T15:17:22.522Z,1.27
2022-08-01T15:19:56.560Z,1.10
2022-08-01T15:22:27.237Z,1.10
2022-08-01T15:25:00.579Z,1.07
2022-08-01T15:27:32.947Z,1.30
2022-08-01T15:30:03.629Z,1.00
2022-08-01T15:32:35.696Z,1.13
2022-08-01T15:35:06.616Z,1.37
2022-08-01T15:37:45.208Z,1.20
2022-08-01T15:40:18.174Z,1.10
2022-08-01T15:42:50.538Z,1.20
2022-08-01T15:48:14.147Z,1.30
2022-08-01T15:50:44.306Z,1.10
2022-08-01T15:53:20.200Z,1.10
2022-08-01T15:55:52.840Z,1.13
2022-08-01T15:58:24.002Z,1.20
2022-08-01T16:00:58.170Z,1.40
2022-08-01T16:03:31.989Z,1.17
2022-08-01T16:06:02.602Z,1.10
2022-08-01T16:08:32.107Z,1.40
2022-08-01T16:11:21.991Z,0.90
2022-08-01T16:13:59.401Z,1.30
2022-08-01T16:16:33.679Z,1.60
2022-08-01T16:21:50.303Z,1.50
2022-08-01T16:24:22.701Z,1.33
2022-08-01T16:26:54.642Z,1.40
2022-08-01T16:29:28.269Z,1.20
2022-08-01T16:32:43.615Z,1.53
2022-08-01T16:34:49.614Z,1.50
2022-08-01T16:37:19.082Z,1.60
2022-08-01T16:39:54.082Z,1.40
2022-08-01T16:42:29.504Z,1.40
2022-08-01T16:45:01.668Z,1.40
2022-08-01T16:47:34.870Z,1.27
2022-08-01T16:50:03.881Z,1.20
2022-08-01T16:52:42.058Z,1.30
2022-08-01T16:55:10.286Z,1.60
2022-08-01T16:57:41.170Z,1.50
2022-08-01T17:00:12.563Z,1.90
2022-08-01T17:02:50.123Z,1.47
2022-08-01T17:05:21.203Z,1.50
2022-08-01T17:07:49.861Z,1.50
2022-08-01T17:10:18.683Z,1.93
2022-08-01T17:12:50.391Z,1.70
2022-08-01T17:15:21.702Z,1.90
2022-08-01T17:17:54.399Z,1.37
2022-08-01T17:20:26.842Z,1.50
2022-08-01T17:23:00.103Z,1.40
2022-08-01T17:25:31.618Z,1.57
2022-08-01T17:28:03.314Z,1.33
2022-08-01T17:30:34.098Z,1.90
2022-08-01T17:33:05.702Z,1.40
2022-08-01T17:35:40.783Z,1.50
2022-08-01T17:38:12.635Z,1.60
2022-08-01T17:40:43.442Z,2.00
2022-08-01T17:43:25.155Z,1.53
2022-08-01T17:46:00.214Z,1.60
2022-08-01T17:48:30.172Z,1.60
2022-08-01T17:51:04.219Z,1.67
2022-08-01T17:53:56.224Z,1.53
2022-08-01T17:56:37.579Z,1.37
2022-08-01T17:59:12.311Z,1.57
2022-08-01T18:01:45.232Z,1.47
2022-08-01T18:04:14.134Z,1.10
2022-08-01T18:06:58.365Z,1.33
2022-08-01T18:09:39.548Z,1.10
2022-08-01T18:12:18.850Z,1.40
2022-08-01T18:14:48.857Z,1.30
2022-08-01T18:17:19.911Z,1.30
2022-08-01T18:19:51.213Z,1.50
2022-08-01T18:22:33.098Z,1.40
2022-08-01T18:25:08.673Z,1.30
2022-08-01T18:28:23.182Z,1.33
2022-08-01T18:30:36.714Z,0.93
2022-08-01T18:33:05.698Z,1.40
2022-08-01T18:35:52.298Z,1.20
2022-08-01T18:38:24.150Z,1.13
2022-08-01T18:41:00.288Z,1.10
2022-08-01T18:43:29.216Z,1.20
2022-08-01T18:46:07.591Z,1.30
2022-08-01T18:51:21.188Z,1.10
2022-08-01T18:54:03.066Z,0.90
2022-08-01T18:56:38.037Z,1.10
2022-08-01T18:59:07.228Z,1.10
2022-08-01T19:01:36.028Z,1.10
2022-08-01T19:04:07.142Z,1.00
2022-08-01T19:06:36.240Z,1.37
2022-08-01T19:09:10.352Z,1.10
2022-08-01T19:11:41.045Z,1.17
2022-08-01T19:14:13.062Z,1.17
2022-08-01T19:16:40.487Z,1.10
2022-08-01T19:19:14.767Z,1.10
2022-08-01T19:21:57.699Z,1.27
2022-08-01T19:24:30.285Z,1.00
2022-08-01T19:27:09.019Z,0.93
2022-08-01T19:29:42.022Z,0.70
2022-08-01T19:32:14.576Z,1.00
2022-08-01T19:35:02.590Z,1.23
2022-08-01T19:37:54.609Z,0.97
2022-08-01T19:40:26.346Z,1.20
2022-08-01T19:43:00.731Z,1.00
2022-08-01T19:45:32.132Z,0.80
2022-08-01T19:48:03.247Z,0.97
2022-08-01T19:50:34.392Z,0.73
2022-08-01T19:53:07.306Z,1.00
2022-08-01T19:55:42.696Z,0.90
2022-08-01T19:58:29.341Z,1.00
2022-08-01T20:00:58.635Z,0.90
2022-08-01T20:06:19.753Z,0.90
2022-08-01T20:08:54.582Z,1.03
2022-08-01T20:11:35.752Z,0.80
2022-08-01T20:14:06.773Z,0.70
2022-08-01T20:16:35.183Z,0.87
2022-08-01T20:19:05.772Z,0.90
2022-08-01T20:21:37.654Z,0.93
2022-08-01T20:24:15.660Z,0.80
2022-08-01T20:26:51.943Z,0.83
2022-08-01T20:29:29.121Z,0.90
2022-08-01T20:32:03.540Z,0.90
2022-08-01T20:34:37.957Z,0.93
2022-08-01T20:37:13.064Z,0.80
2022-08-01T20:39:45.297Z,1.00
2022-08-01T20:42:17.849Z,0.80
2022-08-01T20:44:55.234Z,0.80
2022-08-01T20:47:25.555Z,0.80
2022-08-01T20:50:27.762Z,1.00
2022-08-01T20:53:09.656Z,1.00
2022-08-01T20:56:07.590Z,0.87
2022-08-01T20:58:42.619Z,0.90
2022-08-01T21:01:23.764Z,1.00
2022-08-01T21:04:15.217Z,0.70
2022-08-01T21:06:57.830Z,0.87
2022-08-01T21:09:37.025Z,0.77
2022-08-01T21:12:21.213Z,0.80
2022-08-01T21:15:13.982Z,1.10
2022-08-01T21:17:47.506Z,1.00
2022-08-01T21:20:18.525Z,0.97
2022-08-01T21:23:10.192Z,0.90
2022-08-01T21:25:44.647Z,0.80
2022-08-01T21:28:16.062Z,0.83
2022-08-01T21:30:53.844Z,0.90
2022-08-01T21:33:28.387Z,0.97
2022-08-01T21:36:06.380Z,0.90
2022-08-01T21:38:36.761Z,0.90
2022-08-01T21:41:11.579Z,0.90
2022-08-01T21:43:45.632Z,0.90
2022-08-01T21:46:22.212Z,0.97
2022-08-01T21:48:53.903Z,0.80
2022-08-01T21:51:43.448Z,0.80
2022-08-01T21:54:30.221Z,0.90
2022-08-01T21:57:17.462Z,0.90
2022-08-01T21:59:57.399Z,0.80
2022-08-01T22:02:39.338Z,0.97
2022-08-01T22:05:25.231Z,1.00
2022-08-01T22:08:17.290Z,0.90
2022-08-01T22:10:50.311Z,0.80
2022-08-01T22:13:23.253Z,0.80
2022-08-01T22:16:05.473Z,1.10
2022-08-01T22:18:36.801Z,0.90
2022-08-01T22:21:07.310Z,0.97
2022-08-01T22:23:43.892Z,0.80
2022-08-01T22:26:12.988Z,0.90
2022-08-01T22:28:44.515Z,0.80
2022-08-01T22:31:18.418Z,0.70
2022-08-01T22:33:51.383Z,0.90
2022-08-01T22:36:23.786Z,0.70
2022-08-01T22:38:52.619Z,0.80
2022-08-01T22:42:01.882Z,1.00
2022-08-01T22:44:33.396Z,0.93
2022-08-01T22:47:20.414Z,0.80
2022-08-01T22:49:56.402Z,0.70
2022-08-01T22:52:35.306Z,0.70
2022-08-01T22:55:16.288Z,0.60
2022-08-01T22:57:47.334Z,1.00
2022-08-01T23:00:20.659Z,0.80
2022-08-01T23:02:57.683Z,0.87
2022-08-01T23:05:26.314Z,1.00
2022-08-01T23:07:57.639Z,0.77
2022-08-01T23:10:30.707Z,0.90
2022-08-01T23:13:02.621Z,0.70
2022-08-01T23:15:32.255Z,0.90
2022-08-01T23:18:01.799Z,1.00
2022-08-01T23:20:33.555Z,0.70
2022-08-01T23:23:06.350Z,0.87
2022-08-01T23:25:39.991Z,0.80
2022-08-01T23:28:08.846Z,0.80
2022-08-01T23:30:39.974Z,1.00
2022-08-01T23:33:11.446Z,0.93
2022-08-01T23:35:46.699Z,0.80
2022-08-01T23:38:17.636Z,0.90
2022-08-01T23:40:53.107Z,0.80
2022-08-01T23:43:23.723Z,0.80
2022-08-01T23:46:04.510Z,0.90
2022-08-01T23:48:38.767Z,1.00
2022-08-01T23:51:17.233Z,0.80
2022-08-01T23:53:56.724Z,1.00
2022-08-01T23:56:27.219Z,1.00
2022-08-01T23:58:58.657Z,0.67
